<?xml version="1.0" encoding="UTF-8" standalone="no" ?>
<gpx xmlns="http://www.topografix.com/GPX/1/1" xmlns:xsi="http://www.w3.org/2001/XMLSchema-instance" xsi:schemaLocation="http://www.topografix.com/GPX/1/1 http://www.topografix.com/GPX/1/1/gpx.xsd" version="1.1" creator="VisuGPX - https://www.visugpx.com">
  <metadata>
    <name>boucle Arnaud Guilhem</name>
    <desc><![CDATA[jolie rando dans les petites Pyrénées]]></desc>
  </metadata>
  <trk>
    <name><![CDATA[1390189-vtt30kms]]></name>
    <trkseg>
      <trkpt lat="43.14375" lon="0.89573">
        <ele>416</ele>
        <time>2021-08-04T07:05:05Z</time>
      </trkpt>
      <trkpt lat="43.14477" lon="0.89587">
        <ele>405</ele>
        <time>2021-08-04T07:05:29Z</time>
      </trkpt>
      <trkpt lat="43.14583" lon="0.8948">
        <ele>394</ele>
        <time>2021-08-04T07:06:00Z</time>
      </trkpt>
      <trkpt lat="43.14671" lon="0.89462">
        <ele>385</ele>
        <time>2021-08-04T07:06:20Z</time>
      </trkpt>
      <trkpt lat="43.14694" lon="0.89392">
        <ele>388</ele>
        <time>2021-08-04T07:06:34Z</time>
      </trkpt>
      <trkpt lat="43.14843" lon="0.8941">
        <ele>399</ele>
        <time>2021-08-04T07:07:08Z</time>
      </trkpt>
      <trkpt lat="43.15131" lon="0.89342">
        <ele>418</ele>
        <time>2021-08-04T07:08:17Z</time>
      </trkpt>
      <trkpt lat="43.1514" lon="0.89402">
        <ele>415</ele>
        <time>2021-08-04T07:08:27Z</time>
      </trkpt>
      <trkpt lat="43.15215" lon="0.8947">
        <ele>422</ele>
        <time>2021-08-04T07:08:48Z</time>
      </trkpt>
      <trkpt lat="43.15208" lon="0.89499">
        <ele>422</ele>
        <time>2021-08-04T07:08:53Z</time>
      </trkpt>
      <trkpt lat="43.1526" lon="0.89546">
        <ele>430</ele>
        <time>2021-08-04T07:09:08Z</time>
      </trkpt>
      <trkpt lat="43.1528" lon="0.89514">
        <ele>431</ele>
        <time>2021-08-04T07:09:15Z</time>
      </trkpt>
      <trkpt lat="43.15382" lon="0.89532">
        <ele>436</ele>
        <time>2021-08-04T07:09:39Z</time>
      </trkpt>
      <trkpt lat="43.15402" lon="0.89603">
        <ele>436</ele>
        <time>2021-08-04T07:09:52Z</time>
      </trkpt>
      <trkpt lat="43.15409" lon="0.89749">
        <ele>441</ele>
        <time>2021-08-04T07:10:17Z</time>
      </trkpt>
      <trkpt lat="43.1549" lon="0.89822">
        <ele>435</ele>
        <time>2021-08-04T07:10:40Z</time>
      </trkpt>
      <trkpt lat="43.15585" lon="0.8983">
        <ele>425</ele>
        <time>2021-08-04T07:11:02Z</time>
      </trkpt>
      <trkpt lat="43.15722" lon="0.89812">
        <ele>410</ele>
        <time>2021-08-04T07:11:34Z</time>
      </trkpt>
      <trkpt lat="43.15792" lon="0.89767">
        <ele>398</ele>
        <time>2021-08-04T07:11:52Z</time>
      </trkpt>
      <trkpt lat="43.15851" lon="0.89713">
        <ele>387</ele>
        <time>2021-08-04T07:12:09Z</time>
      </trkpt>
      <trkpt lat="43.15864" lon="0.89647">
        <ele>383</ele>
        <time>2021-08-04T07:12:20Z</time>
      </trkpt>
      <trkpt lat="43.15936" lon="0.89639">
        <ele>377</ele>
        <time>2021-08-04T07:12:37Z</time>
      </trkpt>
      <trkpt lat="43.16038" lon="0.89775">
        <ele>369</ele>
        <time>2021-08-04T07:13:10Z</time>
      </trkpt>
      <trkpt lat="43.1606" lon="0.89908">
        <ele>363</ele>
        <time>2021-08-04T07:13:34Z</time>
      </trkpt>
      <trkpt lat="43.16148" lon="0.89947">
        <ele>363</ele>
        <time>2021-08-04T07:13:55Z</time>
      </trkpt>
      <trkpt lat="43.16272" lon="0.90208">
        <ele>360</ele>
        <time>2021-08-04T07:14:48Z</time>
      </trkpt>
      <trkpt lat="43.16342" lon="0.90496">
        <ele>362</ele>
        <time>2021-08-04T07:15:40Z</time>
      </trkpt>
      <trkpt lat="43.16412" lon="0.9067">
        <ele>357</ele>
        <time>2021-08-04T07:16:14Z</time>
      </trkpt>
      <trkpt lat="43.16374" lon="0.90702">
        <ele>351</ele>
        <time>2021-08-04T07:16:24Z</time>
      </trkpt>
      <trkpt lat="43.16388" lon="0.9073">
        <ele>351</ele>
        <time>2021-08-04T07:16:30Z</time>
      </trkpt>
      <trkpt lat="43.16383" lon="0.90819">
        <ele>345</ele>
        <time>2021-08-04T07:16:45Z</time>
      </trkpt>
      <trkpt lat="43.16453" lon="0.90997">
        <ele>337</ele>
        <time>2021-08-04T07:17:20Z</time>
      </trkpt>
      <trkpt lat="43.16539" lon="0.91072">
        <ele>326</ele>
        <time>2021-08-04T07:17:43Z</time>
      </trkpt>
      <trkpt lat="43.1676" lon="0.91044">
        <ele>315</ele>
        <time>2021-08-04T07:18:35Z</time>
      </trkpt>
      <trkpt lat="43.16888" lon="0.91038">
        <ele>319</ele>
        <time>2021-08-04T07:19:05Z</time>
      </trkpt>
      <trkpt lat="43.17026" lon="0.91091">
        <ele>313</ele>
        <time>2021-08-04T07:19:39Z</time>
      </trkpt>
      <trkpt lat="43.17073" lon="0.91352">
        <ele>300</ele>
        <time>2021-08-04T07:20:24Z</time>
      </trkpt>
      <trkpt lat="43.17042" lon="0.9149">
        <ele>308</ele>
        <time>2021-08-04T07:20:49Z</time>
      </trkpt>
      <trkpt lat="43.17091" lon="0.9156">
        <ele>298</ele>
        <time>2021-08-04T07:21:06Z</time>
      </trkpt>
      <trkpt lat="43.17288" lon="0.91204">
        <ele>305</ele>
        <time>2021-08-04T07:22:22Z</time>
      </trkpt>
      <trkpt lat="43.17338" lon="0.9099">
        <ele>315</ele>
        <time>2021-08-04T07:23:00Z</time>
      </trkpt>
      <trkpt lat="43.17316" lon="0.90802">
        <ele>313</ele>
        <time>2021-08-04T07:23:32Z</time>
      </trkpt>
      <trkpt lat="43.17604" lon="0.90453">
        <ele>315</ele>
        <time>2021-08-04T07:25:02Z</time>
      </trkpt>
      <trkpt lat="43.17557" lon="0.90098">
        <ele>304</ele>
        <time>2021-08-04T07:26:04Z</time>
      </trkpt>
      <trkpt lat="43.17643" lon="0.89795">
        <ele>317</ele>
        <time>2021-08-04T07:26:59Z</time>
      </trkpt>
      <trkpt lat="43.17827" lon="0.8979">
        <ele>336</ele>
        <time>2021-08-04T07:27:42Z</time>
      </trkpt>
      <trkpt lat="43.18071" lon="0.89894">
        <ele>349</ele>
        <time>2021-08-04T07:28:42Z</time>
      </trkpt>
      <trkpt lat="43.18272" lon="0.90071">
        <ele>381</ele>
        <time>2021-08-04T07:29:37Z</time>
      </trkpt>
      <trkpt lat="43.18251" lon="0.90327">
        <ele>396</ele>
        <time>2021-08-04T07:30:21Z</time>
      </trkpt>
      <trkpt lat="43.18466" lon="0.90082">
        <ele>411</ele>
        <time>2021-08-04T07:31:27Z</time>
      </trkpt>
      <trkpt lat="43.18513" lon="0.90118">
        <ele>418</ele>
        <time>2021-08-04T07:31:39Z</time>
      </trkpt>
      <trkpt lat="43.18524" lon="0.90233">
        <ele>425</ele>
        <time>2021-08-04T07:31:59Z</time>
      </trkpt>
      <trkpt lat="43.18441" lon="0.90458">
        <ele>441</ele>
        <time>2021-08-04T07:32:42Z</time>
      </trkpt>
      <trkpt lat="43.18455" lon="0.9064">
        <ele>438</ele>
        <time>2021-08-04T07:33:13Z</time>
      </trkpt>
      <trkpt lat="43.1903" lon="0.90708">
        <ele>463</ele>
        <time>2021-08-04T07:35:28Z</time>
      </trkpt>
      <trkpt lat="43.19153" lon="0.90818">
        <ele>446</ele>
        <time>2021-08-04T07:36:02Z</time>
      </trkpt>
      <trkpt lat="43.19221" lon="0.90818">
        <ele>439</ele>
        <time>2021-08-04T07:36:18Z</time>
      </trkpt>
      <trkpt lat="43.19354" lon="0.90948">
        <ele>421</ele>
        <time>2021-08-04T07:36:56Z</time>
      </trkpt>
      <trkpt lat="43.19541" lon="0.90943">
        <ele>429</ele>
        <time>2021-08-04T07:37:40Z</time>
      </trkpt>
      <trkpt lat="43.19612" lon="0.91037">
        <ele>416</ele>
        <time>2021-08-04T07:38:03Z</time>
      </trkpt>
      <trkpt lat="43.19684" lon="0.90938">
        <ele>411</ele>
        <time>2021-08-04T07:38:27Z</time>
      </trkpt>
      <trkpt lat="43.19932" lon="0.91011">
        <ele>403</ele>
        <time>2021-08-04T07:39:26Z</time>
      </trkpt>
      <trkpt lat="43.20062" lon="0.9122">
        <ele>404</ele>
        <time>2021-08-04T07:40:13Z</time>
      </trkpt>
      <trkpt lat="43.20076" lon="0.91272">
        <ele>402</ele>
        <time>2021-08-04T07:40:22Z</time>
      </trkpt>
      <trkpt lat="43.20126" lon="0.91267">
        <ele>403</ele>
        <time>2021-08-04T07:40:34Z</time>
      </trkpt>
      <trkpt lat="43.20313" lon="0.91413">
        <ele>406</ele>
        <time>2021-08-04T07:41:24Z</time>
      </trkpt>
      <trkpt lat="43.20471" lon="0.91147">
        <ele>397</ele>
        <time>2021-08-04T07:42:22Z</time>
      </trkpt>
      <trkpt lat="43.20572" lon="0.90828">
        <ele>411</ele>
        <time>2021-08-04T07:43:22Z</time>
      </trkpt>
      <trkpt lat="43.2082" lon="0.90395">
        <ele>412</ele>
        <time>2021-08-04T07:44:55Z</time>
      </trkpt>
      <trkpt lat="43.20637" lon="0.90218">
        <ele>402</ele>
        <time>2021-08-04T07:45:48Z</time>
      </trkpt>
      <trkpt lat="43.20532" lon="0.89967">
        <ele>399</ele>
        <time>2021-08-04T07:46:37Z</time>
      </trkpt>
      <trkpt lat="43.20083" lon="0.89983">
        <ele>385</ele>
        <time>2021-08-04T07:48:22Z</time>
      </trkpt>
      <trkpt lat="43.20076" lon="0.89826">
        <ele>384</ele>
        <time>2021-08-04T07:48:49Z</time>
      </trkpt>
      <trkpt lat="43.19954" lon="0.89748">
        <ele>384</ele>
        <time>2021-08-04T07:49:20Z</time>
      </trkpt>
      <trkpt lat="43.19878" lon="0.89774">
        <ele>379</ele>
        <time>2021-08-04T07:49:38Z</time>
      </trkpt>
      <trkpt lat="43.19828" lon="0.89669">
        <ele>370</ele>
        <time>2021-08-04T07:50:00Z</time>
      </trkpt>
      <trkpt lat="43.19753" lon="0.89628">
        <ele>360</ele>
        <time>2021-08-04T07:50:18Z</time>
      </trkpt>
      <trkpt lat="43.19709" lon="0.88991">
        <ele>345</ele>
        <time>2021-08-04T07:52:07Z</time>
      </trkpt>
      <trkpt lat="43.19616" lon="0.88913">
        <ele>346</ele>
        <time>2021-08-04T07:52:33Z</time>
      </trkpt>
      <trkpt lat="43.19515" lon="0.88683">
        <ele>348</ele>
        <time>2021-08-04T07:53:19Z</time>
      </trkpt>
      <trkpt lat="43.19192" lon="0.88406">
        <ele>343</ele>
        <time>2021-08-04T07:54:48Z</time>
      </trkpt>
      <trkpt lat="43.18998" lon="0.88391">
        <ele>328</ele>
        <time>2021-08-04T07:55:33Z</time>
      </trkpt>
      <trkpt lat="43.18685" lon="0.88552">
        <ele>328</ele>
        <time>2021-08-04T07:56:51Z</time>
      </trkpt>
      <trkpt lat="43.1852" lon="0.88693">
        <ele>335</ele>
        <time>2021-08-04T07:57:36Z</time>
      </trkpt>
      <trkpt lat="43.18416" lon="0.88672">
        <ele>331</ele>
        <time>2021-08-04T07:58:01Z</time>
      </trkpt>
      <trkpt lat="43.18337" lon="0.88704">
        <ele>322</ele>
        <time>2021-08-04T07:58:20Z</time>
      </trkpt>
      <trkpt lat="43.18251" lon="0.8862">
        <ele>313</ele>
        <time>2021-08-04T07:58:45Z</time>
      </trkpt>
      <trkpt lat="43.18128" lon="0.88453">
        <ele>318</ele>
        <time>2021-08-04T07:59:25Z</time>
      </trkpt>
      <trkpt lat="43.18071" lon="0.88495">
        <ele>326</ele>
        <time>2021-08-04T07:59:40Z</time>
      </trkpt>
      <trkpt lat="43.18118" lon="0.88234">
        <ele>361</ele>
        <time>2021-08-04T08:00:26Z</time>
      </trkpt>
      <trkpt lat="43.17916" lon="0.88323">
        <ele>379</ele>
        <time>2021-08-04T08:01:16Z</time>
      </trkpt>
      <trkpt lat="43.17927" lon="0.88088">
        <ele>377</ele>
        <time>2021-08-04T08:01:56Z</time>
      </trkpt>
      <trkpt lat="43.18092" lon="0.87707">
        <ele>371</ele>
        <time>2021-08-04T08:03:11Z</time>
      </trkpt>
      <trkpt lat="43.17888" lon="0.87733">
        <ele>369</ele>
        <time>2021-08-04T08:03:59Z</time>
      </trkpt>
      <trkpt lat="43.17909" lon="0.87534">
        <ele>378</ele>
        <time>2021-08-04T08:04:33Z</time>
      </trkpt>
      <trkpt lat="43.17816" lon="0.87388">
        <ele>386</ele>
        <time>2021-08-04T08:05:06Z</time>
      </trkpt>
      <trkpt lat="43.17823" lon="0.87352">
        <ele>390</ele>
        <time>2021-08-04T08:05:13Z</time>
      </trkpt>
      <trkpt lat="43.1773" lon="0.87237">
        <ele>385</ele>
        <time>2021-08-04T08:05:42Z</time>
      </trkpt>
      <trkpt lat="43.1773" lon="0.87096">
        <ele>397</ele>
        <time>2021-08-04T08:06:06Z</time>
      </trkpt>
      <trkpt lat="43.17647" lon="0.86981">
        <ele>391</ele>
        <time>2021-08-04T08:06:34Z</time>
      </trkpt>
      <trkpt lat="43.17546" lon="0.86882">
        <ele>394</ele>
        <time>2021-08-04T08:07:03Z</time>
      </trkpt>
      <trkpt lat="43.17579" lon="0.86689">
        <ele>398</ele>
        <time>2021-08-04T08:07:36Z</time>
      </trkpt>
      <trkpt lat="43.17597" lon="0.8659">
        <ele>400</ele>
        <time>2021-08-04T08:07:54Z</time>
      </trkpt>
      <trkpt lat="43.1746" lon="0.86344">
        <ele>416</ele>
        <time>2021-08-04T08:08:46Z</time>
      </trkpt>
      <trkpt lat="43.16896" lon="0.86543">
        <ele>384</ele>
        <time>2021-08-04T08:11:02Z</time>
      </trkpt>
      <trkpt lat="43.16849" lon="0.86621">
        <ele>383</ele>
        <time>2021-08-04T08:11:20Z</time>
      </trkpt>
      <trkpt lat="43.16745" lon="0.86882">
        <ele>404</ele>
        <time>2021-08-04T08:12:10Z</time>
      </trkpt>
      <trkpt lat="43.16418" lon="0.87216">
        <ele>420</ele>
        <time>2021-08-04T08:13:45Z</time>
      </trkpt>
      <trkpt lat="43.1635" lon="0.87086">
        <ele>432</ele>
        <time>2021-08-04T08:14:13Z</time>
      </trkpt>
      <trkpt lat="43.16184" lon="0.86877">
        <ele>448</ele>
        <time>2021-08-04T08:15:05Z</time>
      </trkpt>
      <trkpt lat="43.16091" lon="0.86344">
        <ele>463</ele>
        <time>2021-08-04T08:16:39Z</time>
      </trkpt>
      <trkpt lat="43.15793" lon="0.86156">
        <ele>453</ele>
        <time>2021-08-04T08:17:55Z</time>
      </trkpt>
      <trkpt lat="43.15534" lon="0.85838">
        <ele>412</ele>
        <time>2021-08-04T08:19:17Z</time>
      </trkpt>
      <trkpt lat="43.15279" lon="0.86031">
        <ele>404</ele>
        <time>2021-08-04T08:20:25Z</time>
      </trkpt>
      <trkpt lat="43.15239" lon="0.86031">
        <ele>401</ele>
        <time>2021-08-04T08:20:34Z</time>
      </trkpt>
      <trkpt lat="43.15247" lon="0.86537">
        <ele>406</ele>
        <time>2021-08-04T08:22:00Z</time>
      </trkpt>
      <trkpt lat="43.15085" lon="0.86658">
        <ele>400</ele>
        <time>2021-08-04T08:22:43Z</time>
      </trkpt>
      <trkpt lat="43.1506" lon="0.86767">
        <ele>398</ele>
        <time>2021-08-04T08:23:03Z</time>
      </trkpt>
      <trkpt lat="43.14981" lon="0.86762">
        <ele>394</ele>
        <time>2021-08-04T08:23:21Z</time>
      </trkpt>
      <trkpt lat="43.14859" lon="0.86934">
        <ele>391</ele>
        <time>2021-08-04T08:24:02Z</time>
      </trkpt>
      <trkpt lat="43.14603" lon="0.87054">
        <ele>378</ele>
        <time>2021-08-04T08:25:05Z</time>
      </trkpt>
      <trkpt lat="43.14657" lon="0.87388">
        <ele>402</ele>
        <time>2021-08-04T08:26:03Z</time>
      </trkpt>
      <trkpt lat="43.146" lon="0.87425">
        <ele>399</ele>
        <time>2021-08-04T08:26:18Z</time>
      </trkpt>
      <trkpt lat="43.14542" lon="0.87529">
        <ele>397</ele>
        <time>2021-08-04T08:26:41Z</time>
      </trkpt>
      <trkpt lat="43.1456" lon="0.87743">
        <ele>379</ele>
        <time>2021-08-04T08:27:17Z</time>
      </trkpt>
      <trkpt lat="43.14179" lon="0.87639">
        <ele>373</ele>
        <time>2021-08-04T08:28:48Z</time>
      </trkpt>
      <trkpt lat="43.14136" lon="0.87681">
        <ele>372</ele>
        <time>2021-08-04T08:29:00Z</time>
      </trkpt>
      <trkpt lat="43.13996" lon="0.87649">
        <ele>365</ele>
        <time>2021-08-04T08:29:33Z</time>
      </trkpt>
      <trkpt lat="43.13957" lon="0.87576">
        <ele>369</ele>
        <time>2021-08-04T08:29:49Z</time>
      </trkpt>
      <trkpt lat="43.13842" lon="0.87722">
        <ele>364</ele>
        <time>2021-08-04T08:30:25Z</time>
      </trkpt>
      <trkpt lat="43.13569" lon="0.87545">
        <ele>395</ele>
        <time>2021-08-04T08:31:36Z</time>
      </trkpt>
      <trkpt lat="43.13558" lon="0.87707">
        <ele>393</ele>
        <time>2021-08-04T08:32:04Z</time>
      </trkpt>
      <trkpt lat="43.13231" lon="0.88532">
        <ele>400</ele>
        <time>2021-08-04T08:34:44Z</time>
      </trkpt>
      <trkpt lat="43.13263" lon="0.88594">
        <ele>399</ele>
        <time>2021-08-04T08:34:57Z</time>
      </trkpt>
      <trkpt lat="43.13202" lon="0.89194">
        <ele>386</ele>
        <time>2021-08-04T08:36:40Z</time>
      </trkpt>
      <trkpt lat="43.13245" lon="0.89356">
        <ele>389</ele>
        <time>2021-08-04T08:37:09Z</time>
      </trkpt>
      <trkpt lat="43.13231" lon="0.89711">
        <ele>383</ele>
        <time>2021-08-04T08:38:10Z</time>
      </trkpt>
      <trkpt lat="43.13181" lon="0.89988">
        <ele>402</ele>
        <time>2021-08-04T08:38:58Z</time>
      </trkpt>
      <trkpt lat="43.13256" lon="0.90364">
        <ele>415</ele>
        <time>2021-08-04T08:40:05Z</time>
      </trkpt>
      <trkpt lat="43.13357" lon="0.90332">
        <ele>409</ele>
        <time>2021-08-04T08:40:29Z</time>
      </trkpt>
      <trkpt lat="43.13378" lon="0.90249">
        <ele>397</ele>
        <time>2021-08-04T08:40:44Z</time>
      </trkpt>
      <trkpt lat="43.13425" lon="0.9028">
        <ele>392</ele>
        <time>2021-08-04T08:40:56Z</time>
      </trkpt>
      <trkpt lat="43.1345" lon="0.90421">
        <ele>390</ele>
        <time>2021-08-04T08:41:21Z</time>
      </trkpt>
      <trkpt lat="43.13576" lon="0.90301">
        <ele>365</ele>
        <time>2021-08-04T08:41:57Z</time>
      </trkpt>
      <trkpt lat="43.13605" lon="0.9016">
        <ele>352</ele>
        <time>2021-08-04T08:42:22Z</time>
      </trkpt>
      <trkpt lat="43.13572" lon="0.90014">
        <ele>341</ele>
        <time>2021-08-04T08:42:48Z</time>
      </trkpt>
      <trkpt lat="43.13594" lon="0.89899">
        <ele>338</ele>
        <time>2021-08-04T08:43:08Z</time>
      </trkpt>
      <trkpt lat="43.13712" lon="0.89675">
        <ele>347</ele>
        <time>2021-08-04T08:43:55Z</time>
      </trkpt>
      <trkpt lat="43.13784" lon="0.89654">
        <ele>355</ele>
        <time>2021-08-04T08:44:12Z</time>
      </trkpt>
      <trkpt lat="43.13885" lon="0.89675">
        <ele>362</ele>
        <time>2021-08-04T08:44:36Z</time>
      </trkpt>
      <trkpt lat="43.13921" lon="0.89617">
        <ele>365</ele>
        <time>2021-08-04T08:44:49Z</time>
      </trkpt>
      <trkpt lat="43.14122" lon="0.89936">
        <ele>405</ele>
        <time>2021-08-04T08:46:01Z</time>
      </trkpt>
      <trkpt lat="43.14215" lon="0.89779">
        <ele>408</ele>
        <time>2021-08-04T08:46:35Z</time>
      </trkpt>
      <trkpt lat="43.14352" lon="0.8957">
        <ele>417</ele>
        <time>2021-08-04T08:47:23Z</time>
      </trkpt>
    </trkseg>
  </trk>
</gpx>